Time;durP1;ratioP1;P1;durP2;ratioP2;P2;SDS_P1;SDS_P2;PMS_P1;PMS_P2;Temp;Humidity;BMP_temperature;BMP_pressure;BME280_temperature;BME280_humidity;BME280_pressure;Samples;Min_cycle;Max_cycle;Signal;HPM_P1;HPM_P2
2021/08/21 00:00:34;;;;;;;;;;;18.20;95.00;;;;;;5039631;28;19959;-69
2021/08/21 00:03:00;;;;;;;;;;;18.20;95.00;;;;;;5039611;28;19924;-69
2021/08/21 00:05:25;;;;;;;;;;;18.20;95.10;;;;;;5039743;28;20280;-70
2021/08/21 00:07:51;;;;;;;;;;;18.30;95.10;;;;;;5039481;28;19917;-70
2021/08/21 00:10:16;;;;;;;;;;;18.30;95.00;;;;;;5039481;28;19912;-70
2021/08/21 00:12:42;;;;;;;;;;;18.30;95.00;;;;;;5037382;28;20008;-70
2021/08/21 00:15:09;;;;;;;;;;;18.30;95.00;;;;;;5039869;28;19908;-70
2021/08/21 00:17:35;;;;;;;;;;;18.30;95.00;;;;;;5039213;28;20268;-70
2021/08/21 00:20:01;;;;;;;;;;;18.30;94.80;;;;;;5039382;28;19921;-69
2021/08/21 00:22:26;;;;;;;;;;;18.30;94.80;;;;;;5039314;28;20360;-70
2021/08/21 00:24:52;;;;;;;;;;;18.20;94.90;;;;;;5039239;28;19913;-70
2021/08/21 00:27:17;;;;;;;;;;;18.10;94.90;;;;;;5037861;28;19970;-70
2021/08/21 00:29:43;;;;;;;;;;;18.20;95.00;;;;;;5038418;28;19966;-70
2021/08/21 00:32:08;;;;;;;;;;;18.30;94.80;;;;;;5038457;28;20364;-70
2021/08/21 00:34:33;;;;;;;;;;;18.40;94.70;;;;;;5038727;28;19964;-70
2021/08/21 00:36:59;;;;;;;;;;;18.50;94.60;;;;;;5039391;28;19924;-70
2021/08/21 00:39:24;;;;;;;;;;;18.50;94.60;;;;;;5038890;28;19920;-70
2021/08/21 00:41:50;;;;;;;;;;;18.40;94.40;;;;;;5039181;28;19914;-69
2021/08/21 00:44:16;;;;;;;;;;;18.40;94.40;;;;;;5055281;28;19909;-70
2021/08/21 00:47:04;;;;;;;;;;;18.30;94.50;;;;;;5049159;28;19936;-70
2021/08/21 00:49:31;;;;;;;;;;;18.30;94.70;;;;;;5041799;28;19921;-70
2021/08/21 00:51:57;;;;;;;;;;;18.30;94.40;;;;;;5043938;28;19909;-70
2021/08/21 00:54:23;;;;;;;;;;;18.20;94.40;;;;;;5043094;28;20431;-70
2021/08/21 00:56:51;;;;;;;;;;;18.10;94.70;;;;;;5049215;28;20055;-70
2021/08/21 00:59:16;;;;;;;;;;;18.00;94.80;;;;;;5042745;28;20273;-69
2021/08/21 01:01:42;;;;;;;;;;;18.00;94.80;;;;;;5041252;28;19913;-69
2021/08/21 01:04:07;;;;;;;;;;;18.10;94.80;;;;;;5042471;28;20276;-70
2021/08/21 01:06:33;;;;;;;;;;;18.10;94.70;;;;;;5041297;28;20509;-70
2021/08/21 01:08:58;;;;;;;;;;;18.20;94.60;;;;;;5048940;28;19963;-70
2021/08/21 01:11:24;;;;;;;;;;;18.30;94.60;;;;;;5042500;28;20003;-70
2021/08/21 01:13:49;;;;;;;;;;;18.40;94.50;;;;;;5042205;28;20000;-70
2021/08/21 01:16:15;;;;;;;;;;;18.40;94.30;;;;;;5042651;28;20091;-70
2021/08/21 01:18:41;;;;;;;;;;;18.30;94.30;;;;;;5042116;28;19978;-70
2021/08/21 01:21:07;;;;;;;;;;;18.30;94.50;;;;;;5042152;28;20357;-70
2021/08/21 01:23:32;;;;;;;;;;;18.10;94.60;;;;;;5041190;28;19909;-70
2021/08/21 01:25:58;;;;;;;;;;;18.00;94.60;;;;;;5042764;28;19908;-70
2021/08/21 01:28:23;;;;;;;;;;;17.90;95.00;;;;;;5042112;28;19918;-70
2021/08/21 01:30:49;;;;;;;;;;;17.90;95.00;;;;;;5042036;28;19996;-70
2021/08/21 01:33:14;;;;;;;;;;;17.90;94.80;;;;;;5042093;28;20350;-70
2021/08/21 01:35:40;;;;;;;;;;;18.00;94.90;;;;;;5040570;28;20379;-69
2021/08/21 01:38:05;;;;;;;;;;;18.10;94.90;;;;;;5048651;28;20407;-69
2021/08/21 01:40:31;;;;;;;;;;;18.20;94.90;;;;;;5041485;28;20387;-70
2021/08/21 01:42:56;;;;;;;;;;;18.30;94.70;;;;;;5041553;28;20335;-70
2021/08/21 01:45:22;;;;;;;;;;;18.20;94.70;;;;;;5040600;28;20338;-70
2021/08/21 01:47:47;;;;;;;;;;;18.10;94.80;;;;;;5041628;28;20039;-70
2021/08/21 01:50:17;;;;;;;;;;;18.00;94.70;;;;;;5041441;28;19909;-70
2021/08/21 01:52:46;;;;;;;;;;;18.00;94.90;;;;;;5041716;28;19917;-70
2021/08/21 01:55:12;;;;;;;;;;;18.00;94.90;;;;;;5041642;28;20334;-70
2021/08/21 01:57:38;;;;;;;;;;;18.00;94.80;;;;;;5041142;28;19920;-70
2021/08/21 02:00:04;;;;;;;;;;;18.10;94.80;;;;;;5041094;28;19917;-70
2021/08/21 02:02:29;;;;;;;;;;;18.10;94.90;;;;;;5041753;28;19910;-70
2021/08/21 02:04:55;;;;;;;;;;;18.10;94.80;;;;;;5041404;28;20003;-70
2021/08/21 02:07:20;;;;;;;;;;;18.20;94.80;;;;;;5039741;28;19913;-69
2021/08/21 02:09:46;;;;;;;;;;;18.10;94.60;;;;;;5041702;28;19913;-70
2021/08/21 02:12:15;;;;;;;;;;;18.00;94.60;;;;;;5041460;28;19908;-70
2021/08/21 02:14:40;;;;;;;;;;;17.90;94.70;;;;;;5040814;28;19924;-70
2021/08/21 02:17:06;;;;;;;;;;;17.90;94.70;;;;;;5041399;28;19917;-70
2021/08/21 02:19:31;;;;;;;;;;;17.80;94.70;;;;;;5039907;28;19975;-70
2021/08/21 02:21:58;;;;;;;;;;;17.70;94.90;;;;;;5040773;28;20280;-70
2021/08/21 02:24:25;;;;;;;;;;;17.80;94.90;;;;;;5040927;28;19913;-70
2021/08/21 02:26:55;;;;;;;;;;;17.90;94.80;;;;;;5041127;28;19920;-70
2021/08/21 02:29:21;;;;;;;;;;;17.90;94.70;;;;;;5041390;28;19951;-70
2021/08/21 02:31:47;;;;;;;;;;;17.90;94.80;;;;;;5039361;28;19924;-70
2021/08/21 02:34:13;;;;;;;;;;;18.00;94.70;;;;;;5041381;28;19917;-69
2021/08/21 02:36:39;;;;;;;;;;;18.10;94.50;;;;;;5041033;28;19987;-70
2021/08/21 02:39:05;;;;;;;;;;;18.10;94.50;;;;;;5041157;28;20343;-77
2021/08/21 02:41:30;;;;;;;;;;;18.00;94.60;;;;;;5041658;28;19908;-77
2021/08/21 02:43:55;;;;;;;;;;;17.90;94.70;;;;;;5041517;28;19913;-76
2021/08/21 02:46:21;;;;;;;;;;;17.80;94.70;;;;;;5041199;28;19917;-76
2021/08/21 02:48:46;;;;;;;;;;;17.70;94.70;;;;;;5040710;28;19913;-76
2021/08/21 02:51:12;;;;;;;;;;;17.70;94.90;;;;;;5041246;28;19919;-76
2021/08/21 02:53:37;;;;;;;;;;;17.70;95.00;;;;;;5040176;28;19968;-77
2021/08/21 02:56:03;;;;;;;;;;;17.80;94.70;;;;;;5056637;28;20502;-76
2021/08/21 02:58:28;;;;;;;;;;;17.80;94.80;;;;;;5040388;28;19963;-70
2021/08/21 03:00:54;;;;;;;;;;;17.80;94.70;;;;;;5040760;28;19924;-79
2021/08/21 03:03:19;;;;;;;;;;;17.80;94.80;;;;;;5041018;28;20368;-69
2021/08/21 03:05:45;;;;;;;;;;;17.80;94.70;;;;;;5040665;28;20304;-76
2021/08/21 03:08:10;;;;;;;;;;;17.70;94.70;;;;;;5039011;28;19987;-76
2021/08/21 03:10:36;;;;;;;;;;;17.60;94.80;;;;;;5040481;28;19967;-68
2021/08/21 03:13:02;;;;;;;;;;;17.60;94.90;;;;;;5040326;28;19924;-68
2021/08/21 03:15:28;;;;;;;;;;;17.60;94.90;;;;;;5040647;28;19955;-69
2021/08/21 03:17:54;;;;;;;;;;;17.60;95.00;;;;;;5039980;28;20373;-69
2021/08/21 03:20:19;;;;;;;;;;;17.60;95.00;;;;;;5055435;28;19921;-69
2021/08/21 03:22:45;;;;;;;;;;;17.60;95.00;;;;;;5038722;28;19960;-69
2021/08/21 03:25:11;;;;;;;;;;;17.70;95.00;;;;;;5040241;28;19916;-68
2021/08/21 03:27:36;;;;;;;;;;;17.60;94.90;;;;;;5040210;28;20349;-76
2021/08/21 03:30:02;;;;;;;;;;;17.60;94.90;;;;;;5040578;28;20253;-76
2021/08/21 03:32:28;;;;;;;;;;;17.60;94.80;;;;;;5039562;28;20291;-79
2021/08/21 03:34:53;;;;;;;;;;;17.50;94.80;;;;;;5040823;28;19917;-79
2021/08/21 03:37:19;;;;;;;;;;;17.40;94.90;;;;;;5040398;28;19960;-80
2021/08/21 03:39:44;;;;;;;;;;;17.30;95.00;;;;;;5040375;28;19917;-77
2021/08/21 03:42:10;;;;;;;;;;;17.30;95.20;;;;;;5040253;28;19910;-76
2021/08/21 03:44:35;;;;;;;;;;;17.40;95.20;;;;;;5040130;28;20428;-69
2021/08/21 03:47:01;;;;;;;;;;;17.50;95.00;;;;;;5038405;28;19920;-70
2021/08/21 03:49:26;;;;;;;;;;;17.50;95.00;;;;;;5039136;28;19944;-69
2021/08/21 03:51:51;;;;;;;;;;;17.60;94.90;;;;;;5046054;28;20360;-69
2021/08/21 03:54:17;;;;;;;;;;;17.50;94.90;;;;;;5039524;28;19909;-69
2021/08/21 03:56:42;;;;;;;;;;;17.50;95.00;;;;;;5039640;28;19912;-70
2021/08/21 03:59:08;;;;;;;;;;;17.50;94.90;;;;;;5039729;28;20372;-79
2021/08/21 04:01:33;;;;;;;;;;;17.60;94.80;;;;;;5039539;28;19909;-68
2021/08/21 04:03:59;;;;;;;;;;;17.60;94.70;;;;;;5054735;28;19909;-69
2021/08/21 04:06:24;;;;;;;;;;;17.60;94.60;;;;;;5038224;28;19913;-69
2021/08/21 04:08:50;;;;;;;;;;;17.60;94.60;;;;;;5038901;28;19909;-78
2021/08/21 04:11:16;;;;;;;;;;;17.50;94.60;;;;;;5040366;28;19952;-76
2021/08/21 04:13:41;;;;;;;;;;;17.50;94.50;;;;;;5040003;28;19960;-76
2021/08/21 04:16:07;;;;;;;;;;;17.40;94.60;;;;;;5039451;28;19909;-76
2021/08/21 04:18:32;;;;;;;;;;;17.50;94.50;;;;;;5040208;28;19913;-69
2021/08/21 04:20:58;;;;;;;;;;;17.40;94.50;;;;;;5042022;28;19916;-69
2021/08/21 04:23:23;;;;;;;;;;;17.50;94.60;;;;;;5042479;28;20338;-69
2021/08/21 04:25:49;;;;;;;;;;;17.40;94.60;;;;;;5042492;28;19917;-78
2021/08/21 04:28:14;;;;;;;;;;;17.40;94.60;;;;;;5044407;28;20281;-79
2021/08/21 04:30:40;;;;;;;;;;;17.40;94.60;;;;;;5043290;28;19999;-79
2021/08/21 04:33:05;;;;;;;;;;;17.50;94.50;;;;;;5043654;28;20015;-79
2021/08/21 04:35:31;;;;;;;;;;;17.50;94.40;;;;;;5043994;28;19913;-79
2021/08/21 04:37:57;;;;;;;;;;;17.60;94.40;;;;;;5050329;28;19913;-79
2021/08/21 04:40:23;;;;;;;;;;;17.60;94.40;;;;;;5043916;28;19917;-79
2021/08/21 04:42:48;;;;;;;;;;;17.70;94.30;;;;;;5041823;28;19970;-79
2021/08/21 04:45:14;;;;;;;;;;;17.80;94.30;;;;;;5043762;28;19909;-78
2021/08/21 04:47:39;;;;;;;;;;;17.80;94.20;;;;;;5043634;28;19913;-79
2021/08/21 04:50:05;;;;;;;;;;;17.90;94.10;;;;;;5044756;28;19917;-79
2021/08/21 04:52:30;;;;;;;;;;;18.00;94.00;;;;;;5044101;28;19916;-79
2021/08/21 04:54:56;;;;;;;;;;;18.10;93.80;;;;;;5044509;28;19908;-79
2021/08/21 04:57:22;;;;;;;;;;;18.00;93.80;;;;;;5043161;28;20015;-79
2021/08/21 04:59:47;;;;;;;;;;;17.90;93.90;;;;;;5043881;28;20016;-79
2021/08/21 05:02:13;;;;;;;;;;;17.80;94.10;;;;;;5042770;28;19999;-79
2021/08/21 05:04:38;;;;;;;;;;;17.60;94.30;;;;;;5043852;28;19920;-78
2021/08/21 05:07:04;;;;;;;;;;;17.60;94.50;;;;;;5044268;28;19909;-79
2021/08/21 05:09:29;;;;;;;;;;;17.50;94.60;;;;;;5043588;28;19970;-79
2021/08/21 05:11:54;;;;;;;;;;;17.50;94.60;;;;;;5042615;28;19913;-79
2021/08/21 05:14:20;;;;;;;;;;;17.50;94.70;;;;;;5042844;28;20020;-79
2021/08/21 05:16:49;;;;;;;;;;;17.70;94.80;;;;;;5043112;28;20376;-79
2021/08/21 05:19:27;;;;;;;;;;;17.80;94.70;;;;;;5043354;28;19920;-79
2021/08/21 05:21:56;;;;;;;;;;;17.80;94.70;;;;;;5042915;28;19913;-78
2021/08/21 05:24:21;;;;;;;;;;;18.00;94.60;;;;;;5043067;28;20125;-79
2021/08/21 05:26:49;;;;;;;;;;;18.10;94.50;;;;;;5044547;28;20000;-78
2021/08/21 05:29:16;;;;;;;;;;;18.30;94.50;;;;;;5040850;28;19913;-78
2021/08/21 05:31:42;;;;;;;;;;;18.40;94.30;;;;;;5044186;28;20276;-78
2021/08/21 05:34:11;;;;;;;;;;;18.60;94.10;;;;;;5042928;28;19917;-78
2021/08/21 05:36:36;;;;;;;;;;;18.60;93.90;;;;;;5041591;28;20383;-79
2021/08/21 05:39:02;;;;;;;;;;;18.60;94.00;;;;;;5042959;28;19920;-78
2021/08/21 05:41:28;;;;;;;;;;;18.50;93.90;;;;;;5042778;28;19913;-79
2021/08/21 05:43:53;;;;;;;;;;;18.40;93.90;;;;;;5042727;28;19971;-79
2021/08/21 05:46:19;;;;;;;;;;;18.30;94.00;;;;;;5042501;28;19920;-79
2021/08/21 05:48:44;;;;;;;;;;;18.30;94.20;;;;;;5042232;28;19920;-78
2021/08/21 05:51:09;;;;;;;;;;;18.30;94.10;;;;;;5070377;23;19932;-72
2021/08/21 05:53:35;;;;;;;;;;;18.30;94.20;;;;;;5050389;28;19919;-72
2021/08/21 05:56:00;;;;;;;;;;;18.30;94.20;;;;;;5050919;28;20392;-72
2021/08/21 05:58:26;;;;;;;;;;;18.30;94.10;;;;;;5050632;28;19921;-72
2021/08/21 06:00:51;;;;;;;;;;;18.40;94.00;;;;;;5050767;28;19917;-72
2021/08/21 06:03:17;;;;;;;;;;;18.50;93.90;;;;;;5050383;28;20414;-72
2021/08/21 06:05:43;;;;;;;;;;;18.50;93.90;;;;;;5048750;28;19967;-72
2021/08/21 06:08:08;;;;;;;;;;;18.40;94.00;;;;;;5051035;28;20280;-72
2021/08/21 06:10:34;;;;;;;;;;;18.30;94.10;;;;;;5040950;28;20365;-72
2021/08/21 06:12:59;;;;;;;;;;;18.30;94.10;;;;;;5050225;28;20003;-72
2021/08/21 06:15:25;;;;;;;;;;;18.30;94.10;;;;;;5050315;28;19913;-72
2021/08/21 06:17:50;;;;;;;;;;;18.20;94.20;;;;;;5050370;28;19917;-72
2021/08/21 06:20:16;;;;;;;;;;;18.30;94.30;;;;;;5047588;28;19916;-72
2021/08/21 06:22:41;;;;;;;;;;;18.30;94.30;;;;;;5050582;28;19958;-72
2021/08/21 06:25:08;;;;;;;;;;;18.40;94.40;;;;;;5049180;28;19916;-72
2021/08/21 06:27:34;;;;;;;;;;;18.50;94.20;;;;;;5050081;28;19966;-72
2021/08/21 06:29:59;;;;;;;;;;;18.60;94.10;;;;;;5048622;28;20338;-72
2021/08/21 06:32:25;;;;;;;;;;;18.60;93.90;;;;;;5050105;28;20395;-72
2021/08/21 06:34:51;;;;;;;;;;;18.80;93.70;;;;;;5049815;28;19917;-72
2021/08/21 06:37:16;;;;;;;;;;;18.90;93.50;;;;;;5047925;28;20383;-72
2021/08/21 06:39:42;;;;;;;;;;;19.00;93.20;;;;;;5049975;28;20151;-72
2021/08/21 06:42:07;;;;;;;;;;;19.00;93.20;;;;;;5047642;28;19956;-73
2021/08/21 06:44:32;;;;;;;;;;;19.10;93.10;;;;;;5049570;28;19951;-73
2021/08/21 06:46:58;;;;;;;;;;;19.20;93.00;;;;;;5049584;28;20298;-73
2021/08/21 06:49:24;;;;;;;;;;;19.20;92.90;;;;;;5050600;28;20271;-73
2021/08/21 06:51:49;;;;;;;;;;;19.30;92.80;;;;;;5049339;28;19920;-73
2021/08/21 06:54:15;;;;;;;;;;;19.40;92.70;;;;;;5047577;28;19917;-73
2021/08/21 06:56:40;;;;;;;;;;;19.40;92.60;;;;;;5049031;28;19913;-72
2021/08/21 06:59:05;;;;;;;;;;;19.50;92.50;;;;;;5048364;28;19944;-72
2021/08/21 07:01:31;;;;;;;;;;;19.60;92.40;;;;;;5049512;28;20327;-76
2021/08/21 07:03:56;;;;;;;;;;;19.70;92.40;;;;;;5048042;28;19912;-77
2021/08/21 07:06:22;;;;;;;;;;;19.70;92.30;;;;;;5048939;28;20268;-74
2021/08/21 07:08:47;;;;;;;;;;;19.80;92.20;;;;;;5047601;28;19913;-74
2021/08/21 07:11:13;;;;;;;;;;;19.80;92.10;;;;;;5049380;28;20360;-76
2021/08/21 07:13:38;;;;;;;;;;;19.90;92.20;;;;;;5046993;28;19923;-72
2021/08/21 07:16:04;;;;;;;;;;;20.00;92.00;;;;;;5048108;28;19912;-75
2021/08/21 07:18:29;;;;;;;;;;;20.00;92.20;;;;;;5049580;28;19921;-75
2021/08/21 07:20:55;;;;;;;;;;;20.00;91.70;;;;;;5049889;28;19917;-74
2021/08/21 07:23:20;;;;;;;;;;;19.90;91.70;;;;;;5064432;28;19913;-74
2021/08/21 07:25:46;;;;;;;;;;;20.00;91.80;;;;;;5049913;28;20315;-73
2021/08/21 07:28:11;;;;;;;;;;;20.00;91.90;;;;;;5048179;28;19909;-75
2021/08/21 07:30:37;;;;;;;;;;;20.10;91.90;;;;;;5048175;28;19958;-74
2021/08/21 07:33:02;;;;;;;;;;;20.20;91.60;;;;;;5049173;28;19912;-74
2021/08/21 07:35:28;;;;;;;;;;;20.30;91.50;;;;;;5049705;28;20427;-74
2021/08/21 07:37:53;;;;;;;;;;;20.30;91.40;;;;;;5047005;28;19957;-74
2021/08/21 07:40:19;;;;;;;;;;;20.50;91.50;;;;;;5049385;28;19921;-75
2021/08/21 07:42:44;;;;;;;;;;;20.70;91.40;;;;;;5048557;28;19908;-74
2021/08/21 07:45:10;;;;;;;;;;;20.80;91.10;;;;;;5047877;28;19928;-73
2021/08/21 07:47:35;;;;;;;;;;;20.80;91.10;;;;;;5048091;28;19945;-73
2021/08/21 07:50:01;;;;;;;;;;;20.80;90.80;;;;;;5048715;28;19917;-73
2021/08/21 07:52:26;;;;;;;;;;;20.90;90.90;;;;;;5047044;28;19916;-73
2021/08/21 07:54:53;;;;;;;;;;;21.00;90.70;;;;;;5048618;28;19912;-73
2021/08/21 07:57:19;;;;;;;;;;;21.10;90.50;;;;;;5048583;28;19913;-73
2021/08/21 07:59:44;;;;;;;;;;;21.10;90.30;;;;;;5049074;28;19920;-73
2021/08/21 08:02:09;;;;;;;;;;;21.10;90.20;;;;;;5047864;28;19931;-73
2021/08/21 08:04:35;;;;;;;;;;;21.20;90.20;;;;;;5046709;28;19931;-73
2021/08/21 08:07:01;;;;;;;;;;;21.30;90.10;;;;;;5049797;28;19916;-74
2021/08/21 08:09:28;;;;;;;;;;;21.40;90.00;;;;;;5048244;28;19940;-75
2021/08/21 08:11:54;;;;;;;;;;;21.40;89.80;;;;;;5048538;28;20050;-74
2021/08/21 08:14:19;;;;;;;;;;;21.40;89.60;;;;;;5048194;28;19999;-75
2021/08/21 08:16:44;;;;;;;;;;;21.40;89.00;;;;;;5046459;28;19924;-75
2021/08/21 08:19:10;;;;;;;;;;;21.40;89.00;;;;;;5047799;28;19923;-75
2021/08/21 08:21:35;;;;;;;;;;;21.40;89.00;;;;;;5047782;28;19917;-75
2021/08/21 08:24:01;;;;;;;;;;;21.30;89.10;;;;;;5049644;28;19909;-75
2021/08/21 08:26:26;;;;;;;;;;;21.30;89.40;;;;;;5048392;28;19913;-75
2021/08/21 08:28:51;;;;;;;;;;;21.50;89.40;;;;;;5048594;28;19917;-75
2021/08/21 08:31:17;;;;;;;;;;;21.60;89.10;;;;;;5048617;28;20027;-75
2021/08/21 08:33:43;;;;;;;;;;;21.80;89.30;;;;;;5046640;28;19927;-75
2021/08/21 08:36:08;;;;;;;;;;;22.00;88.90;;;;;;5046881;28;19920;-75
2021/08/21 08:38:34;;;;;;;;;;;22.10;87.90;;;;;;5048434;28;19913;-75
2021/08/21 08:41:00;;;;;;;;;;;22.10;88.00;;;;;;5049145;28;19916;-75
2021/08/21 08:43:26;;;;;;;;;;;22.00;87.70;;;;;;5049838;28;19982;-73
2021/08/21 08:45:52;;;;;;;;;;;22.10;88.10;;;;;;5048501;28;19970;-75
2021/08/21 08:48:17;;;;;;;;;;;22.30;88.00;;;;;;5049378;28;19913;-77
2021/08/21 08:50:43;;;;;;;;;;;22.50;87.80;;;;;;5047821;28;19921;-75
2021/08/21 08:53:09;;;;;;;;;;;22.60;87.10;;;;;;5049483;28;20600;-75
2021/08/21 08:55:34;;;;;;;;;;;22.80;87.10;;;;;;5045648;28;19920;-73
2021/08/21 08:58:00;;;;;;;;;;;22.70;86.40;;;;;;5048983;28;19952;-71
2021/08/21 09:00:26;;;;;;;;;;;22.70;86.50;;;;;;5047362;28;20398;-72
2021/08/21 09:02:53;;;;;;;;;;;22.80;86.60;;;;;;5046315;28;19966;-72
2021/08/21 09:05:21;;;;;;;;;;;22.90;86.60;;;;;;5048717;28;20268;-72
2021/08/21 09:07:51;;;;;;;;;;;22.80;86.30;;;;;;5067601;28;19962;-72
2021/08/21 09:10:21;;;;;;;;;;;22.70;86.00;;;;;;5052279;28;19916;-72
2021/08/21 09:12:48;;;;;;;;;;;22.60;85.80;;;;;;5051810;28;20268;-72
2021/08/21 09:15:33;;;;;;;;;;;22.70;85.70;;;;;;5049732;28;20012;-72
2021/08/21 09:18:08;;;;;;;;;;;22.50;85.70;;;;;;5050914;28;19913;-72
2021/08/21 09:20:48;;;;;;;;;;;22.30;85.90;;;;;;5051708;28;19916;-72
2021/08/21 09:23:33;;;;;;;;;;;22.30;86.40;;;;;;5052029;28;19908;-72
2021/08/21 09:26:04;;;;;;;;;;;22.40;86.50;;;;;;5051162;28;19916;-72
2021/08/21 09:28:30;;;;;;;;;;;22.50;86.30;;;;;;5051534;28;19912;-72
2021/08/21 09:31:03;;;;;;;;;;;22.60;86.00;;;;;;5051826;28;19913;-72
2021/08/21 09:33:29;;;;;;;;;;;22.70;85.90;;;;;;5051802;28;19912;-72
2021/08/21 09:35:54;;;;;;;;;;;22.80;85.60;;;;;;5051371;28;20099;-72
2021/08/21 09:38:24;;;;;;;;;;;22.90;85.20;;;;;;5051916;28;19952;-71
2021/08/21 09:40:56;;;;;;;;;;;22.90;84.60;;;;;;5051253;28;19956;-71
2021/08/21 09:43:22;;;;;;;;;;;22.90;84.70;;;;;;5041785;28;19921;-72
2021/08/21 09:45:48;;;;;;;;;;;23.00;84.40;;;;;;5051736;28;19917;-72
2021/08/21 09:48:13;;;;;;;;;;;23.20;83.80;;;;;;5051732;28;19940;-72
2021/08/21 09:50:40;;;;;;;;;;;23.30;83.50;;;;;;5050021;28;20371;-72
2021/08/21 09:53:07;;;;;;;;;;;23.60;83.90;;;;;;5066800;28;19920;-72
2021/08/21 09:55:32;;;;;;;;;;;23.80;82.90;;;;;;5051367;28;19913;-72
2021/08/21 09:58:03;;;;;;;;;;;23.90;81.80;;;;;;5050258;28;20007;-72
2021/08/21 10:00:29;;;;;;;;;;;23.80;78.70;;;;;;5049996;28;19959;-72
2021/08/21 10:02:56;;;;;;;;;;;23.60;79.60;;;;;;5049924;28;20336;-72
2021/08/21 10:05:22;;;;;;;;;;;23.50;80.30;;;;;;5051595;28;20007;-72
2021/08/21 10:07:53;;;;;;;;;;;23.50;80.10;;;;;;5051403;28;19913;-72
2021/08/21 10:10:22;;;;;;;;;;;23.50;79.80;;;;;;5048940;28;20636;-72
2021/08/21 10:12:52;;;;;;;;;;;23.50;79.80;;;;;;5050503;28;20386;-72
2021/08/21 10:15:19;;;;;;;;;;;23.50;79.90;;;;;;5045692;28;20371;-74
2021/08/21 10:17:46;;;;;;;;;;;23.50;80.30;;;;;;5046744;28;19913;-74
2021/08/21 10:20:12;;;;;;;;;;;23.50;80.00;;;;;;5049985;28;19916;-74
2021/08/21 10:22:38;;;;;;;;;;;23.40;79.70;;;;;;5050822;28;20276;-73
2021/08/21 10:25:08;;;;;;;;;;;23.40;80.70;;;;;;5050468;28;20445;-74
2021/08/21 10:27:39;;;;;;;;;;;23.40;79.80;;;;;;5048693;28;20877;-74
2021/08/21 10:30:20;;;;;;;;;;;23.40;79.00;;;;;;5049214;28;19948;-74
2021/08/21 10:32:56;;;;;;;;;;;23.40;79.50;;;;;;5049768;28;19920;-74
2021/08/21 10:35:39;;;;;;;;;;;23.60;79.60;;;;;;5049188;28;19999;-75
2021/08/21 10:38:24;;;;;;;;;;;23.80;79.50;;;;;;5048844;28;19919;-75
2021/08/21 10:40:49;;;;;;;;;;;23.80;77.90;;;;;;5048602;28;19921;-75
2021/08/21 10:43:15;;;;;;;;;;;23.80;77.70;;;;;;5050215;28;19912;-74
2021/08/21 10:45:43;;;;;;;;;;;23.80;77.30;;;;;;5047525;28;20444;-75
2021/08/21 10:48:13;;;;;;;;;;;23.80;76.90;;;;;;5049349;28;20284;-75
2021/08/21 10:50:42;;;;;;;;;;;23.70;77.00;;;;;;5047024;28;19916;-75
2021/08/21 10:53:09;;;;;;;;;;;23.80;77.90;;;;;;5049566;28;19917;-74
2021/08/21 10:55:41;;;;;;;;;;;23.90;77.50;;;;;;5048698;28;19948;-79
2021/08/21 10:58:10;;;;;;;;;;;23.90;74.80;;;;;;5047935;28;19920;-75
2021/08/21 11:00:38;;;;;;;;;;;23.80;75.30;;;;;;5049689;28;20351;-77
2021/08/21 11:03:07;;;;;;;;;;;23.80;76.70;;;;;;5047281;28;19945;-75
2021/08/21 11:05:49;;;;;;;;;;;23.80;76.30;;;;;;5042113;28;19913;-76
2021/08/21 11:08:15;;;;;;;;;;;23.90;76.50;;;;;;5047697;28;19913;-76
2021/08/21 11:10:40;;;;;;;;;;;24.10;76.70;;;;;;5048283;28;20411;-76
2021/08/21 11:13:08;;;;;;;;;;;24.30;76.70;;;;;;5046469;28;20284;-76
2021/08/21 11:15:34;;;;;;;;;;;24.50;76.00;;;;;;5048158;28;20000;-76
2021/08/21 11:18:00;;;;;;;;;;;24.40;75.40;;;;;;5047722;28;20047;-75
2021/08/21 11:20:27;;;;;;;;;;;24.40;76.80;;;;;;5048976;28;19959;-76
2021/08/21 11:23:04;;;;;;;;;;;24.50;76.30;;;;;;5048597;28;19982;-76
2021/08/21 11:25:30;;;;;;;;;;;24.30;73.40;;;;;;5048844;28;19916;-76
2021/08/21 11:28:02;;;;;;;;;;;24.10;73.90;;;;;;5046851;28;19913;-76
2021/08/21 11:30:28;;;;;;;;;;;24.10;74.80;;;;;;5046687;28;19995;-76
2021/08/21 11:32:58;;;;;;;;;;;24.10;74.80;;;;;;5049604;28;20390;-76
2021/08/21 11:35:27;;;;;;;;;;;24.30;76.60;;;;;;5048531;28;19912;-76
2021/08/21 11:37:54;;;;;;;;;;;24.60;75.50;;;;;;5049542;28;20356;-76
2021/08/21 11:40:21;;;;;;;;;;;24.60;73.80;;;;;;5049629;28;19916;-76
2021/08/21 11:42:48;;;;;;;;;;;24.60;73.70;;;;;;5049424;28;19913;-76
2021/08/21 11:45:14;;;;;;;;;;;24.50;72.90;;;;;;5049672;28;20559;-76
2021/08/21 11:47:40;;;;;;;;;;;24.40;74.00;;;;;;5046640;28;19913;-76
2021/08/21 11:50:19;;;;;;;;;;;24.50;74.70;;;;;;5049413;28;19912;-76
2021/08/21 11:52:48;;;;;;;;;;;24.70;74.40;;;;;;5047331;23;19925;-72
2021/08/21 11:55:14;;;;;;;;;;;25.00;73.60;;;;;;5019910;28;20560;-72
2021/08/21 11:57:45;;;;;;;;;;;25.10;74.10;;;;;;4985921;28;19914;-72
2021/08/21 12:00:15;;;;;;;;;;;25.00;73.40;;;;;;4992512;28;19917;-72
2021/08/21 12:02:45;;;;;;;;;;;25.10;73.40;;;;;;5001584;28;20279;-72
2021/08/21 12:05:13;;;;;;;;;;;24.90;73.00;;;;;;5018039;28;19979;-72
2021/08/21 12:07:39;;;;;;;;;;;24.70;72.70;;;;;;4985126;28;20639;-72
2021/08/21 12:10:05;;;;;;;;;;;24.50;72.90;;;;;;5003947;28;20011;-72
2021/08/21 12:12:32;;;;;;;;;;;24.40;73.10;;;;;;5001779;28;19952;-73
2021/08/21 12:15:00;;;;;;;;;;;24.50;73.00;;;;;;4985641;28;20394;-73
2021/08/21 12:17:27;;;;;;;;;;;24.50;72.30;;;;;;5019553;28;19913;-74
2021/08/21 12:19:52;;;;;;;;;;;24.40;72.90;;;;;;4985020;28;19929;-72
2021/08/21 12:22:18;;;;;;;;;;;24.40;72.80;;;;;;5019488;28;19932;-73
2021/08/21 12:24:51;;;;;;;;;;;24.40;72.40;;;;;;5001754;28;19918;-73
2021/08/21 12:27:27;;;;;;;;;;;24.40;72.50;;;;;;5019392;28;20012;-73
2021/08/21 12:30:28;;;;;;;;;;;24.40;72.80;;;;;;5019317;28;20108;-73
2021/08/21 12:33:08;;;;;;;;;;;24.60;73.50;;;;;;4997219;28;20049;-73
2021/08/21 12:35:33;;;;;;;;;;;24.70;72.10;;;;;;5017105;28;19910;-73
2021/08/21 12:38:06;;;;;;;;;;;24.90;72.70;;;;;;5017557;28;19927;-73
2021/08/21 12:40:31;;;;;;;;;;;25.00;72.40;;;;;;5004281;28;20288;-73
2021/08/21 12:43:04;;;;;;;;;;;25.20;73.20;;;;;;5022970;28;19913;-73
2021/08/21 12:45:29;;;;;;;;;;;25.40;71.90;;;;;;5023109;28;19921;-73
2021/08/21 12:47:55;;;;;;;;;;;25.30;68.90;;;;;;5023164;28;20426;-73
2021/08/21 12:50:21;;;;;;;;;;;25.10;70.30;;;;;;5022937;28;20302;-73
2021/08/21 12:53:00;;;;;;;;;;;25.00;70.90;;;;;;5020703;28;19921;-74
2021/08/21 12:55:25;;;;;;;;;;;25.10;71.40;;;;;;5022873;28;20434;-73
2021/08/21 12:58:01;;;;;;;;;;;25.30;71.20;;;;;;5022822;28;19913;-73
2021/08/21 13:00:27;;;;;;;;;;;25.30;70.30;;;;;;5022799;28;19917;-73
2021/08/21 13:02:53;;;;;;;;;;;25.30;69.70;;;;;;5021828;28;19920;-73
2021/08/21 13:05:21;;;;;;;;;;;25.40;68.90;;;;;;5022490;28;19913;-75
2021/08/21 13:07:47;;;;;;;;;;;25.30;68.90;;;;;;5021055;28;20376;-74
2021/08/21 13:10:14;;;;;;;;;;;25.30;69.00;;;;;;5022584;28;19920;-74
2021/08/21 13:12:40;;;;;;;;;;;25.40;69.70;;;;;;5022248;28;19913;-74
2021/08/21 13:15:08;;;;;;;;;;;25.60;69.70;;;;;;5022829;28;19913;-73
2021/08/21 13:17:33;;;;;;;;;;;25.70;69.00;;;;;;5022259;28;19909;-73
2021/08/21 13:19:58;;;;;;;;;;;25.90;68.80;;;;;;5022278;28;19913;-73
2021/08/21 13:22:28;;;;;;;;;;;25.90;68.30;;;;;;5022167;28;19910;-74
2021/08/21 13:24:53;;;;;;;;;;;25.90;67.80;;;;;;5020521;28;19917;-73
2021/08/21 13:27:18;;;;;;;;;;;25.70;68.20;;;;;;5022028;28;19915;-74
2021/08/21 13:29:44;;;;;;;;;;;25.70;68.30;;;;;;5021847;28;20020;-74
2021/08/21 13:32:09;;;;;;;;;;;25.70;68.50;;;;;;5004358;28;19920;-74
2021/08/21 13:34:35;;;;;;;;;;;25.70;68.70;;;;;;5021998;28;19920;-74
2021/08/21 13:37:00;;;;;;;;;;;25.90;68.70;;;;;;5022050;28;19913;-74
2021/08/21 13:39:26;;;;;;;;;;;26.20;68.30;;;;;;5022022;28;19913;-73
2021/08/21 13:41:51;;;;;;;;;;;26.20;67.10;;;;;;5020230;28;19941;-73
2021/08/21 13:44:17;;;;;;;;;;;26.10;66.60;;;;;;5021381;28;20372;-73
2021/08/21 13:46:42;;;;;;;;;;;25.90;67.50;;;;;;5021753;28;19979;-73
2021/08/21 13:49:07;;;;;;;;;;;25.90;67.70;;;;;;5021958;28;19913;-73
2021/08/21 13:51:35;;;;;;;;;;;26.00;68.00;;;;;;5020803;28;19921;-74
2021/08/21 13:54:00;;;;;;;;;;;26.10;67.50;;;;;;5021456;28;19956;-73
2021/08/21 13:56:26;;;;;;;;;;;26.30;66.60;;;;;;5021962;28;19949;-73
2021/08/21 13:58:51;;;;;;;;;;;26.50;67.20;;;;;;5021529;28;19920;-73
2021/08/21 14:01:17;;;;;;;;;;;26.80;65.50;;;;;;5019978;28;20369;-73
2021/08/21 14:03:42;;;;;;;;;;;26.90;63.70;;;;;;5021105;28;20386;-73
2021/08/21 14:06:08;;;;;;;;;;;27.10;63.80;;;;;;5021416;28;19916;-73
2021/08/21 14:08:33;;;;;;;;;;;27.00;64.30;;;;;;5021534;28;19909;-73
2021/08/21 14:10:58;;;;;;;;;;;27.10;64.30;;;;;;5021156;28;19949;-73
2021/08/21 14:13:24;;;;;;;;;;;27.10;64.60;;;;;;5021326;28;19910;-73